Time;durP1;ratioP1;P1;durP2;ratioP2;P2;SDS_P1;SDS_P2;PMS_P1;PMS_P2;Temp;Humidity;BMP_temperature;BMP_pressure;BME280_temperature;BME280_humidity;BME280_pressure;Samples;Min_cycle;Max_cycle;Signal;HPM_P1;HPM_P2
2021/01/27 00:02:11;;;;;;;36.88;18.90;;;-1.10;99.90;;;;;;5006346;28;20034;-57
2021/01/27 00:04:37;;;;;;;34.67;18.52;;;-1.20;99.90;;;;;;5006633;28;20090;-57
2021/01/27 00:07:03;;;;;;;36.50;18.98;;;-1.30;99.90;;;;;;5006458;28;20042;-57
2021/01/27 00:09:29;;;;;;;34.45;19.52;;;-1.30;99.90;;;;;;5006755;28;20044;-57
2021/01/27 00:11:56;;;;;;;38.05;19.08;;;-1.30;99.90;;;;;;5006299;28;20030;-57
2021/01/27 00:14:22;;;;;;;35.55;19.85;;;-1.40;99.90;;;;;;5006386;28;20116;-56
2021/01/27 00:16:47;;;;;;;39.28;20.58;;;-1.40;99.90;;;;;;5006399;28;20075;-57
2021/01/27 00:19:13;;;;;;;41.70;20.17;;;-1.50;99.90;;;;;;5006465;28;20571;-57
2021/01/27 00:21:39;;;;;;;41.50;20.10;;;-1.50;99.90;;;;;;5006120;28;20536;-59
2021/01/27 00:24:05;;;;;;;43.22;20.38;;;-1.50;99.90;;;;;;5006145;28;20528;-59
2021/01/27 00:26:31;;;;;;;36.13;18.65;;;-1.50;99.90;;;;;;5006659;28;20034;-59
2021/01/27 00:28:57;;;;;;;33.17;17.83;;;-1.50;99.90;;;;;;5006200;28;20129;-59
2021/01/27 00:31:23;;;;;;;36.05;17.80;;;-1.50;99.90;;;;;;5006419;28;20057;-59
2021/01/27 00:33:48;;;;;;;40.35;19.77;;;-1.60;99.90;;;;;;5006446;28;20038;-59
2021/01/27 00:36:14;;;;;;;40.40;19.23;;;-1.60;99.90;;;;;;5006481;28;20045;-59
2021/01/27 00:38:40;;;;;;;40.00;18.25;;;-1.60;99.90;;;;;;5006428;28;20068;-56
2021/01/27 00:41:06;;;;;;;35.05;17.80;;;-1.60;99.90;;;;;;5009197;28;20514;-56
2021/01/27 00:43:31;;;;;;;32.03;17.23;;;-1.60;99.90;;;;;;5009860;28;20088;-57
2021/01/27 00:45:57;;;;;;;32.63;17.20;;;-1.60;99.90;;;;;;5009861;28;20401;-57
2021/01/27 00:48:23;;;;;;;33.92;17.50;;;-1.60;99.90;;;;;;5009518;28;20042;-57
2021/01/27 00:50:50;;;;;;;32.97;16.73;;;-1.60;99.90;;;;;;5009439;28;20151;-57
2021/01/27 00:53:16;;;;;;;37.25;18.00;;;-1.60;99.90;;;;;;5009492;28;20080;-57
2021/01/27 00:55:45;;;;;;;33.72;18.02;;;-1.60;99.90;;;;;;5007980;28;20041;-59
2021/01/27 00:58:13;;;;;;;34.97;16.75;;;-1.60;99.90;;;;;;5007967;28;20045;-59
2021/01/27 01:00:41;;;;;;;32.70;17.45;;;-1.60;99.90;;;;;;5008022;28;20030;-59
2021/01/27 01:03:15;;;;;;;34.00;16.23;;;-1.60;99.90;;;;;;5007932;28;20132;-59
2021/01/27 01:05:43;;;;;;;32.05;16.92;;;-1.60;99.90;;;;;;5009415;28;20550;-58
2021/01/27 01:08:12;;;;;;;33.10;16.65;;;-1.60;99.90;;;;;;5009210;28;20518;-58
2021/01/27 01:10:41;;;;;;;28.92;15.85;;;-1.60;99.90;;;;;;5009406;28;20128;-59
2021/01/27 01:13:10;;;;;;;33.08;16.73;;;-1.70;99.90;;;;;;5009176;28;20030;-59
2021/01/27 01:15:36;;;;;;;31.40;16.30;;;-1.70;99.90;;;;;;5009319;28;20033;-59
2021/01/27 01:18:02;;;;;;;32.35;16.67;;;-1.70;99.90;;;;;;5009073;28;20584;-59
2021/01/27 01:20:28;;;;;;;32.40;17.77;;;-1.60;99.90;;;;;;5009063;28;20053;-58
2021/01/27 01:22:56;;;;;;;30.60;18.45;;;-1.60;99.90;;;;;;5008853;28;20052;-59
2021/01/27 01:25:24;;;;;;;30.50;16.63;;;-1.60;99.90;;;;;;5008976;28;20057;-58
2021/01/27 01:27:50;;;;;;;33.17;17.48;;;-1.60;99.90;;;;;;5008936;28;20041;-58
2021/01/27 01:30:21;;;;;;;36.78;17.77;;;-1.60;99.90;;;;;;5008718;28;20479;-59
2021/01/27 01:32:47;;;;;;;34.97;17.73;;;-1.60;99.90;;;;;;5008879;28;20042;-58
2021/01/27 01:35:15;;;;;;;35.08;17.40;;;-1.50;99.90;;;;;;5008779;28;20411;-58
2021/01/27 01:37:42;;;;;;;34.15;17.17;;;-1.50;99.90;;;;;;5008706;28;20042;-59
2021/01/27 01:40:10;;;;;;;32.00;18.38;;;-1.50;99.90;;;;;;5007247;28;20126;-59
2021/01/27 01:42:37;;;;;;;35.00;18.23;;;-1.40;99.90;;;;;;5008835;28;20102;-59
2021/01/27 01:45:17;;;;;;;35.38;18.75;;;-1.30;99.90;;;;;;5008648;28;20038;-59
2021/01/27 01:47:42;;;;;;;38.40;18.27;;;-1.20;99.90;;;;;;5008944;28;20033;-59
2021/01/27 01:50:09;;;;;;;36.78;18.98;;;-1.20;99.90;;;;;;5007979;28;20116;-59
2021/01/27 01:52:35;;;;;;;44.03;19.45;;;-1.10;99.90;;;;;;5008408;28;20038;-59
2021/01/27 01:55:02;;;;;;;34.53;19.42;;;-1.10;99.90;;;;;;5008585;28;20098;-59
2021/01/27 01:57:30;;;;;;;34.67;18.63;;;-1.10;99.90;;;;;;5008587;28;20524;-59
2021/01/27 01:59:59;;;;;;;38.47;19.40;;;-1.00;99.90;;;;;;5008231;28;20045;-59
2021/01/27 02:02:26;;;;;;;41.13;19.45;;;-0.90;99.90;;;;;;5008290;28;20041;-56
2021/01/27 02:04:56;;;;;;;31.85;18.83;;;-0.90;99.90;;;;;;5008284;28;20034;-59
2021/01/27 02:07:23;;;;;;;36.22;18.23;;;-0.80;99.90;;;;;;5008278;28;20060;-59
2021/01/27 02:09:48;;;;;;;32.95;19.10;;;-0.80;99.90;;;;;;5008373;28;20041;-59
2021/01/27 02:12:20;;;;;;;34.45;19.55;;;-0.80;99.90;;;;;;5008301;28;20046;-59
2021/01/27 02:15:08;;;;;;;35.13;18.63;;;-0.70;99.90;;;;;;5008156;28;20041;-59
2021/01/27 02:18:01;;;;;;;30.98;17.92;;;-0.60;99.90;;;;;;5008116;28;20054;-57
2021/01/27 02:20:45;;;;;;;38.75;19.02;;;-0.60;99.90;;;;;;5012598;28;20081;-57
2021/01/27 02:23:45;;;;;;;32.83;18.35;;;-0.50;99.90;;;;;;5006773;28;20075;-57
2021/01/27 02:26:27;;;;;;;36.03;18.02;;;-0.50;99.90;;;;;;5007913;28;20049;-57
2021/01/27 02:29:02;;;;;;;35.25;17.77;;;-0.50;99.90;;;;;;5008125;28;20046;-57
2021/01/27 02:31:35;;;;;;;34.28;18.80;;;-0.50;99.90;;;;;;5008075;28;20068;-57
2021/01/27 02:34:18;;;;;;;35.25;18.45;;;-0.40;99.90;;;;;;5007858;28;20042;-57
2021/01/27 02:37:02;;;;;;;34.35;17.40;;;-0.40;99.90;;;;;;5007844;28;20050;-57
2021/01/27 02:39:32;;;;;;;33.38;17.95;;;-0.40;99.90;;;;;;5007964;28;20038;-57
2021/01/27 02:42:05;;;;;;;33.55;18.55;;;-0.40;99.90;;;;;;5007786;28;20053;-56
2021/01/27 02:44:47;;;;;;;31.90;18.58;;;-0.40;99.90;;;;;;5007859;28;20034;-57
2021/01/27 02:47:20;;;;;;;25.47;13.93;;;-0.40;99.90;;;;;;5007786;28;20054;-57
2021/01/27 02:49:55;;;;;;;37.58;20.00;;;-0.40;99.90;;;;;;5007708;28;20335;-57
2021/01/27 02:52:30;;;;;;;29.50;18.45;;;-0.40;99.90;;;;;;5007653;28;20034;-57
2021/01/27 02:54:59;;;;;;;33.15;18.80;;;-0.50;99.90;;;;;;5007457;28;20422;-57
2021/01/27 02:58:00;;;;;;;31.90;17.20;;;-0.40;99.90;;;;;;5007411;28;20538;-57
2021/01/27 03:00:33;;;;;;;36.03;19.35;;;-0.40;99.90;;;;;;5007461;28;20034;-57
2021/01/27 03:03:02;;;;;;;;;;;-0.50;99.90;;;;;;5007263;28;20107;-57
2021/01/27 03:05:39;;;;;;;32.13;16.65;;;-0.50;99.90;;;;;;5007478;28;19913;-57
2021/01/27 03:08:27;;;;;;;33.08;18.38;;;-0.40;99.90;;;;;;5007276;28;20041;-56
2021/01/27 03:11:08;;;;;;;32.13;17.65;;;-0.40;99.90;;;;;;5007387;28;20042;-56
2021/01/27 03:13:39;;;;;;;31.17;17.77;;;-0.40;99.90;;;;;;5007182;28;20130;-56
2021/01/27 03:16:14;;;;;;;34.30;19.15;;;-0.50;99.90;;;;;;5007218;28;20038;-57
2021/01/27 03:18:44;;;;;;;34.55;19.25;;;-0.40;99.90;;;;;;5007228;28;20117;-57
2021/01/27 03:21:20;;;;;;;32.38;17.73;;;-0.40;99.90;;;;;;5007542;28;20078;-57
2021/01/27 03:23:50;;;;;;;32.30;17.55;;;-0.40;99.90;;;;;;5007288;28;20042;-57
2021/01/27 03:26:31;;;;;;;34.10;19.02;;;-0.40;99.90;;;;;;5006971;28;20046;-57
2021/01/27 03:29:23;;;;;;;32.20;18.50;;;-0.40;99.90;;;;;;5007180;28;20076;-57
2021/01/27 03:31:53;;;;;;;33.67;20.52;;;-0.40;99.90;;;;;;5007008;28;20034;-57
2021/01/27 03:34:47;;;;;;;39.42;21.35;;;-0.40;99.90;;;;;;5007032;28;20045;-57
2021/01/27 03:37:24;;;;;;;47.42;24.00;;;-0.40;99.90;;;;;;5008743;28;20081;-57
2021/01/27 03:39:56;;;;;;;43.33;24.38;;;-0.30;99.90;;;;;;5006778;28;20042;-57
2021/01/27 03:42:31;;;;;;;47.17;25.77;;;-0.30;99.90;;;;;;5006666;28;20370;-57
2021/01/27 03:45:05;;;;;;;36.78;21.33;;;-0.30;99.90;;;;;;5006790;28;20038;-57
2021/01/27 03:47:52;;;;;;;34.63;20.35;;;-0.40;99.90;;;;;;5006954;28;20069;-55
2021/01/27 03:50:21;;;;;;;36.83;20.23;;;-0.40;99.90;;;;;;5006756;28;20052;-56
2021/01/27 03:53:06;;;;;;;35.17;19.60;;;-0.30;99.90;;;;;;5006857;28;20036;-57
2021/01/27 03:55:52;;;;;;;39.42;19.38;;;-0.30;99.90;;;;;;5006640;28;20159;-57
2021/01/27 03:58:33;;;;;;;36.75;18.88;;;-0.30;99.90;;;;;;5006582;28;20057;-56
2021/01/27 04:01:07;;;;;;;31.38;18.65;;;-0.40;99.90;;;;;;5007004;28;20052;-57
2021/01/27 04:03:34;;;;;;;34.83;19.02;;;-0.40;99.90;;;;;;5006911;28;20048;-57
2021/01/27 04:06:03;;;;;;;34.83;18.90;;;-0.40;99.90;;;;;;5006710;28;20117;-57
2021/01/27 04:08:29;;;;;;;33.03;18.13;;;-0.40;99.90;;;;;;5006717;28;20129;-57
2021/01/27 04:10:55;;;;;;;29.85;17.30;;;-0.40;99.90;;;;;;5006426;28;20589;-57
2021/01/27 04:13:21;;;;;;;35.50;19.20;;;-0.40;99.90;;;;;;5007384;28;20048;-57
2021/01/27 04:15:47;;;;;;;29.25;16.67;;;-0.30;99.90;;;;;;5009918;28;20112;-57
2021/01/27 04:18:13;;;;;;;31.20;18.23;;;-0.30;99.90;;;;;;5009924;28;20129;-57
2021/01/27 04:20:39;;;;;;;36.90;19.00;;;-0.30;99.90;;;;;;5009795;28;20529;-56
2021/01/27 04:23:05;;;;;;;32.85;19.25;;;-0.30;99.90;;;;;;5009903;28;20045;-57
2021/01/27 04:25:31;;;;;;;29.42;17.77;;;-0.30;99.90;;;;;;5010011;28;20061;-57
2021/01/27 04:27:57;;;;;;;32.25;18.85;;;-0.40;99.90;;;;;;5010031;28;20499;-57
2021/01/27 04:30:31;;;;;;;36.80;19.63;;;-0.40;99.90;;;;;;5009684;28;20058;-57
2021/01/27 04:32:58;;;;;;;36.88;19.60;;;-0.40;99.90;;;;;;5009878;28;20056;-57
2021/01/27 04:35:25;;;;;;;36.13;19.83;;;-0.40;99.90;;;;;;5009873;28;20036;-57
2021/01/27 04:37:50;;;;;;;38.90;20.75;;;-0.40;99.90;;;;;;5009823;28;20034;-57
2021/01/27 04:40:23;;;;;;;33.10;19.02;;;-0.40;99.90;;;;;;5009668;28;20475;-56
2021/01/27 04:42:50;;;;;;;37.97;19.05;;;-0.40;99.90;;;;;;5009576;28;20042;-57
2021/01/27 04:45:17;;;;;;;36.05;20.35;;;-0.40;99.90;;;;;;5009385;28;20037;-56
2021/01/27 04:48:14;;;;;;;36.05;18.38;;;-0.40;99.90;;;;;;5009498;28;20103;-57
2021/01/27 04:50:53;;;;;;;37.28;19.55;;;-0.40;99.90;;;;;;5009425;28;20034;-57
2021/01/27 04:53:41;;;;;;;33.22;19.52;;;-0.50;99.90;;;;;;5009391;28;20069;-56
2021/01/27 04:56:25;;;;;;;34.15;19.13;;;-0.40;99.90;;;;;;5014548;28;20042;-57
2021/01/27 04:59:12;;;;;;;36.88;20.90;;;-0.40;99.90;;;;;;5009416;28;20133;-56
2021/01/27 05:01:56;;;;;;;36.35;19.88;;;-0.30;99.90;;;;;;5009262;28;20053;-57
2021/01/27 05:04:56;;;;;;;32.58;19.67;;;-0.30;99.90;;;;;;5009101;28;20038;-57
2021/01/27 05:07:29;;;;;;;31.23;20.25;;;-0.30;99.90;;;;;;5009115;28;20083;-57
2021/01/27 05:09:58;;;;;;;36.00;20.60;;;-0.30;99.90;;;;;;5009016;28;20038;-57
2021/01/27 05:12:32;;;;;;;32.88;19.27;;;-0.30;99.90;;;;;;5042115;28;20081;-57
2021/01/27 05:14:59;;;;;;;35.00;19.67;;;-0.30;99.90;;;;;;5000144;28;20415;-56
2021/01/27 05:17:25;;;;;;;32.00;19.40;;;-0.30;99.90;;;;;;5008832;28;20173;-57
2021/01/27 05:19:51;;;;;;;34.05;19.30;;;-0.30;99.90;;;;;;5009250;28;20436;-56
2021/01/27 05:22:18;;;;;;;32.60;20.50;;;-0.30;99.90;;;;;;5008906;28;20057;-57
2021/01/27 05:24:45;;;;;;;33.00;19.75;;;-0.30;99.90;;;;;;5008002;28;20057;-57
2021/01/27 05:27:26;;;;;;;35.97;20.20;;;-0.30;99.90;;;;;;5008911;28;20045;-56
2021/01/27 05:29:58;;;;;;;35.28;19.85;;;-0.20;99.90;;;;;;5008876;28;20041;-57
2021/01/27 05:32:27;;;;;;;40.88;19.58;;;-0.20;99.90;;;;;;5008725;28;20107;-57
2021/01/27 05:34:55;;;;;;;29.67;18.48;;;-0.20;99.90;;;;;;5008899;28;20569;-56
2021/01/27 05:37:27;;;;;;;37.97;20.85;;;-0.30;99.90;;;;;;5008693;28;20050;-57
2021/01/27 05:40:15;;;;;;;29.90;19.40;;;-0.30;99.90;;;;;;5008679;28;20041;-56
2021/01/27 05:42:43;;;;;;;34.90;21.35;;;-0.30;99.90;;;;;;5008518;28;20053;-57
2021/01/27 05:45:30;;;;;;;35.80;20.27;;;-0.30;99.90;;;;;;5008549;28;20037;-57
2021/01/27 05:48:12;;;;;;;37.38;21.08;;;-0.20;99.90;;;;;;5008789;28;20071;-56
2021/01/27 05:50:40;;;;;;;37.67;21.53;;;-0.20;99.90;;;;;;5006648;28;20033;-56
2021/01/27 05:53:20;;;;;;;34.17;19.63;;;-0.20;99.90;;;;;;5006279;28;20273;-57
2021/01/27 05:55:58;;;;;;;38.40;20.63;;;-0.20;99.90;;;;;;5007586;28;20046;-57
2021/01/27 05:58:24;;;;;;;35.97;20.17;;;-0.20;99.90;;;;;;4997415;28;20080;-56
2021/01/27 06:00:50;;;;;;;32.85;19.23;;;-0.20;99.90;;;;;;5006710;28;20099;-55
2021/01/27 06:03:24;;;;;;;39.95;20.35;;;-0.20;99.90;;;;;;5006921;28;20034;-56
2021/01/27 06:05:51;;;;;;;33.28;19.63;;;-0.20;99.90;;;;;;4992320;28;20046;-56
2021/01/27 06:08:21;;;;;;;36.00;19.95;;;-0.20;99.90;;;;;;4987367;28;20415;-56
2021/01/27 06:10:48;;;;;;;40.47;21.33;;;-0.20;99.90;;;;;;4987571;28;20149;-56
2021/01/27 06:13:23;;;;;;;31.15;19.95;;;-0.20;99.90;;;;;;4992632;28;20042;-55
2021/01/27 06:15:49;;;;;;;32.80;19.77;;;-0.20;99.90;;;;;;5006894;28;20034;-56
2021/01/27 06:18:25;;;;;;;35.80;22.02;;;-0.20;99.90;;;;;;5006859;28;20037;-56
2021/01/27 06:21:12;;;;;;;37.50;21.17;;;-0.20;99.90;;;;;;5006459;28;20049;-55
2021/01/27 06:23:58;;;;;;;35.80;19.63;;;-0.20;99.90;;;;;;5006833;28;20519;-56
2021/01/27 06:26:30;;;;;;;37.42;19.60;;;-0.10;99.90;;;;;;5006941;28;20045;-56
2021/01/27 06:29:20;;;;;;;34.35;21.42;;;-0.10;99.90;;;;;;5006638;28;20495;-56
2021/01/27 06:32:00;;;;;;;35.08;19.70;;;-0.10;99.90;;;;;;4989465;28;20038;-57
2021/01/27 06:34:43;;;;;;;32.72;19.08;;;-0.10;99.90;;;;;;4987039;28;20125;-58
2021/01/27 06:37:08;;;;;;;30.80;19.73;;;-0.10;99.90;;;;;;4986919;28;20051;-58
2021/01/27 06:40:29;;;;;;;36.05;19.95;;;0.00;99.90;;;;;;4986966;28;20038;-60
2021/01/27 06:43:09;;;;;;;34.65;19.55;;;0.00;99.90;;;;;;4971832;28;20080;-58
2021/01/27 06:45:55;;;;;;;42.92;19.73;;;0.00;99.90;;;;;;4986818;28;20045;-58
2021/01/27 06:48:32;;;;;;;37.53;20.95;;;0.00;99.90;;;;;;4986830;28;20062;-55
2021/01/27 06:51:30;;;;;;;33.90;20.25;;;0.00;99.90;;;;;;4986803;28;20050;-58
2021/01/27 06:54:13;;;;;;;41.63;20.65;;;0.10;99.90;;;;;;4981667;28;20034;-58
2021/01/27 06:57:06;;;;;;;33.35;19.83;;;0.20;99.90;;;;;;4986778;28;20108;-58
2021/01/27 07:00:30;;;;;;;34.72;20.45;;;0.20;99.90;;;;;;4986826;28;20111;-58
2021/01/27 07:03:17;;;;;;;33.97;20.00;;;0.20;99.90;;;;;;4991183;28;20054;-58
2021/01/27 07:05:52;;;;;;;35.83;19.85;;;0.20;99.90;;;;;;5002079;28;20503;-58
2021/01/27 07:08:36;;;;;;;40.92;20.85;;;0.20;99.90;;;;;;5005941;28;20042;-58
2021/01/27 07:11:25;;;;;;;36.75;20.98;;;0.30;99.90;;;;;;5006073;28;20121;-56
2021/01/27 07:14:28;;;;;;;34.80;21.05;;;0.30;99.90;;;;;;5005969;28;20494;-58
2021/01/27 07:16:56;;;;;;;;;;;0.40;99.90;;;;;;5006324;28;20052;-55
2021/01/27 07:19:46;;;;;;;35.65;18.52;;;0.50;99.90;;;;;;5005903;28;19954;-55
2021/01/27 07:22:42;;;;;;;34.83;20.20;;;0.60;99.90;;;;;;5005825;28;20522;-56
2021/01/27 07:25:28;;;;;;;33.85;19.17;;;0.70;99.90;;;;;;5005925;28;20045;-55
2021/01/27 07:28:05;;;;;;;35.58;19.15;;;0.80;99.90;;;;;;5005524;28;20050;-56
2021/01/27 07:30:54;;;;;;;31.77;19.52;;;0.80;99.90;;;;;;5005908;28;20030;-55
2021/01/27 07:33:28;;;;;;;38.40;19.85;;;0.80;99.90;;;;;;5005679;28;20510;-58
2021/01/27 07:36:25;;;;;;;31.70;19.70;;;0.80;99.90;;;;;;5005568;28;20080;-58
2021/01/27 07:38:56;;;;;;;37.33;21.02;;;0.80;99.90;;;;;;5004651;28;20038;-58
2021/01/27 07:41:28;;;;;;;33.10;20.08;;;0.80;99.90;;;;;;5005399;28;20057;-58
2021/01/27 07:44:07;;;;;;;35.13;21.17;;;0.80;99.90;;;;;;5005633;28;20582;-57
2021/01/27 07:47:16;;;;;;;45.38;21.60;;;0.80;99.90;;;;;;5005466;28;20046;-58
2021/01/27 07:49:54;;;;;;;37.92;21.85;;;0.80;99.90;;;;;;5004979;28;20053;-58
2021/01/27 07:52:35;;;;;;;34.28;20.90;;;0.80;99.90;;;;;;5005357;28;20030;-57
2021/01/27 07:55:29;;;;;;;39.23;21.00;;;0.80;99.90;;;;;;5005811;28;20057;-58
2021/01/27 07:58:01;;;;;;;37.85;21.98;;;0.80;99.90;;;;;;5005276;28;20779;-57
2021/01/27 08:00:30;;;;;;;39.70;21.63;;;0.80;99.90;;;;;;5005572;28;20156;-58
2021/01/27 08:03:12;;;;;;;65.00;27.58;;;0.80;99.90;;;;;;5005357;28;20053;-55
2021/01/27 08:05:41;;;;;;;56.72;24.50;;;0.80;99.90;;;;;;4989922;28;20042;-58
2021/01/27 08:08:25;;;;;;;37.85;20.63;;;0.80;99.90;;;;;;4985710;28;20038;-58
2021/01/27 08:10:52;;;;;;;46.03;22.52;;;0.90;99.90;;;;;;4985655;28;20145;-58
2021/01/27 08:13:27;;;;;;;37.80;21.33;;;1.00;99.90;;;;;;4985685;28;20035;-58
2021/01/27 08:16:01;;;;;;;36.45;21.23;;;1.00;99.90;;;;;;4985506;28;20050;-58
2021/01/27 08:18:27;;;;;;;38.55;21.55;;;1.00;99.90;;;;;;4985449;28;20492;-57
2021/01/27 08:21:17;;;;;;;33.42;18.48;;;1.00;99.90;;;;;;4985475;28;20039;-57
2021/01/27 08:23:44;;;;;;;39.67;20.13;;;1.10;99.90;;;;;;4985504;28;20491;-58
2021/01/27 08:26:10;;;;;;;34.83;20.65;;;1.10;99.90;;;;;;4985421;28;20038;-58
2021/01/27 08:28:37;;;;;;;35.33;19.92;;;1.10;99.90;;;;;;4985475;28;20147;-57
2021/01/27 08:31:09;;;;;;;37.30;19.63;;;1.20;99.90;;;;;;4985493;28;20137;-59
2021/01/27 08:33:45;;;;;;;35.28;19.33;;;1.20;99.90;;;;;;4985307;28;20038;-57
2021/01/27 08:36:17;;;;;;;37.08;21.58;;;1.20;99.90;;;;;;4985543;28;20176;-58
2021/01/27 08:38:47;;;;;;;36.95;20.08;;;1.20;99.90;;;;;;4985183;28;20053;-58
2021/01/27 08:41:38;;;;;;;35.10;19.92;;;1.20;99.90;;;;;;4985150;28;20058;-57
2021/01/27 08:44:04;;;;;;;35.25;19.83;;;1.20;99.90;;;;;;4985094;28;20074;-58
2021/01/27 08:46:44;;;;;;;29.40;18.23;;;1.30;99.90;;;;;;4985547;28;20034;-58
2021/01/27 08:49:10;;;;;;;33.35;19.00;;;1.40;99.90;;;;;;4985250;28;20396;-56
2021/01/27 08:51:44;;;;;;;33.72;18.00;;;1.50;99.90;;;;;;4985144;28;20031;-56
2021/01/27 08:54:28;;;;;;;33.55;18.38;;;1.70;99.90;;;;;;4985126;28;20034;-57
2021/01/27 08:57:18;;;;;;;42.28;20.80;;;1.80;99.90;;;;;;4985023;28;20479;-56
2021/01/27 09:00:01;;;;;;;28.15;17.92;;;1.80;99.90;;;;;;4985081;28;20057;-55
2021/01/27 09:02:45;;;;;;;31.33;18.92;;;1.90;99.90;;;;;;4988438;28;20100;-55
2021/01/27 09:05:23;;;;;;;28.95;17.75;;;1.90;99.90;;;;;;4999888;28;20042;-58
2021/01/27 09:08:23;;;;;;;28.42;17.90;;;1.90;99.90;;;;;;5007768;28;20134;-58
2021/01/27 09:10:55;;;;;;;35.08;16.83;;;1.90;99.90;;;;;;5007622;28;20050;-56
2021/01/27 09:13:33;;;;;;;32.15;18.77;;;2.00;99.90;;;;;;5007847;28;20030;-58
2021/01/27 09:16:11;;;;;;;28.83;17.38;;;2.00;99.90;;;;;;5007833;28;20771;-57
2021/01/27 09:18:36;;;;;;;28.08;17.70;;;2.10;99.90;;;;;;5007767;28;20087;-58
2021/01/27 09:21:09;;;;;;;27.65;16.20;;;2.10;99.90;;;;;;5007556;28;20034;-57
2021/01/27 09:23:36;;;;;;;31.17;17.13;;;2.20;99.90;;;;;;5007528;28;20038;-58
2021/01/27 09:26:16;;;;;;;27.73;16.42;;;2.10;99.90;;;;;;5007908;28;20069;-58
2021/01/27 09:28:42;;;;;;;27.45;16.90;;;2.20;99.90;;;;;;5007735;28;20045;-55
2021/01/27 09:31:19;;;;;;;27.67;17.13;;;2.10;99.90;;;;;;5007584;28;20125;-58
2021/01/27 09:33:46;;;;;;;31.23;16.88;;;2.00;99.90;;;;;;5007617;28;20042;-57
2021/01/27 09:36:23;;;;;;;28.27;17.25;;;2.10;99.90;;;;;;5007408;28;20041;-57
2021/01/27 09:38:50;;;;;;;29.75;17.15;;;2.20;99.90;;;;;;5007481;28;20038;-58
2021/01/27 09:41:22;;;;;;;32.20;16.45;;;2.20;99.90;;;;;;5006978;28;20435;-57
2021/01/27 09:43:48;;;;;;;32.10;17.00;;;2.30;99.90;;;;;;5007117;28;20517;-57
2021/01/27 09:46:36;;;;;;;35.88;17.35;;;2.40;99.90;;;;;;5007239;28;20042;-57
2021/01/27 09:49:10;;;;;;;30.25;16.30;;;2.50;99.90;;;;;;5007564;28;20034;-57
2021/01/27 09:51:39;;;;;;;37.88;16.35;;;2.50;99.90;;;;;;5007286;28;20038;-57
2021/01/27 09:54:07;;;;;;;26.95;15.65;;;2.50;99.90;;;;;;5006928;28;20873;-57
2021/01/27 09:56:34;;;;;;;25.08;14.25;;;2.60;99.90;;;;;;5007204;28;20038;-58
2021/01/27 09:59:00;;;;;;;32.28;14.60;;;2.60;99.90;;;;;;5007162;28;20041;-57
2021/01/27 10:01:29;;;;;;;28.05;14.88;;;2.60;99.90;;;;;;5006936;28;20053;-57
2021/01/27 10:04:08;;;;;;;25.17;15.30;;;2.70;99.90;;;;;;5005941;28;20496;-57
2021/01/27 10:06:45;;;;;;;22.98;14.38;;;2.80;99.90;;;;;;4987439;28;20049;-57
2021/01/27 10:09:20;;;;;;;22.83;13.43;;;2.80;99.90;;;;;;4987329;28;20050;-57
2021/01/27 10:11:48;;;;;;;26.63;14.43;;;2.90;99.90;;;;;;4987136;28;20038;-57
2021/01/27 10:14:22;;;;;;;26.90;15.27;;;2.90;99.90;;;;;;4987344;28;20149;-58
2021/01/27 10:16:52;;;;;;;25.75;14.10;;;2.90;99.90;;;;;;4987064;28;20074;-57
2021/01/27 10:19:34;;;;;;;24.63;14.00;;;2.90;99.90;;;;;;4987249;28;20066;-57
2021/01/27 10:22:04;;;;;;;24.13;13.88;;;2.90;99.90;;;;;;4987437;28;20054;-57
2021/01/27 10:25:00;;;;;;;24.67;14.52;;;2.90;99.90;;;;;;4987391;28;20145;-57
2021/01/27 10:27:40;;;;;;;21.15;12.95;;;2.90;99.90;;;;;;4985882;28;20574;-57
2021/01/27 10:30:42;;;;;;;21.05;13.30;;;2.80;99.90;;;;;;4987366;28;20038;-58
2021/01/27 10:33:31;;;;;;;31.20;14.82;;;2.80;99.90;;;;;;4968006;28;20551;-58
2021/01/27 10:35:59;;;;;;;26.70;14.93;;;2.80;99.90;;;;;;4987102;28;20046;-55
2021/01/27 10:38:26;;;;;;;26.23;15.90;;;2.70;99.90;;;;;;4987081;28;20150;-58
2021/01/27 10:41:06;;;;;;;30.48;14.98;;;2.60;99.90;;;;;;4986576;28;20555;-57
2021/01/27 10:43:32;;;;;;;26.17;16.65;;;2.60;99.90;;;;;;4987130;28;20565;-58
2021/01/27 10:45:57;;;;;;;30.20;18.27;;;2.60;99.90;;;;;;4987022;28;20121;-57
2021/01/27 10:48:29;;;;;;;30.88;17.42;;;2.60;99.90;;;;;;4987271;28;20121;-57
2021/01/27 10:51:05;;;;;;;33.83;18.05;;;2.60;99.90;;;;;;4987169;28;20038;-58
2021/01/27 10:53:51;;;;;;;29.77;16.10;;;2.70;99.90;;;;;;4986215;28;20031;-58
2021/01/27 10:56:18;;;;;;;27.73;14.50;;;2.70;99.90;;;;;;4986794;28;20412;-57
2021/01/27 10:58:44;;;;;;;23.52;14.73;;;2.80;99.90;;;;;;4986535;28;20304;-58
2021/01/27 11:01:10;;;;;;;24.77;12.77;;;2.80;99.90;;;;;;4986780;28;20567;-57
2021/01/27 11:03:35;;;;;;;23.67;14.18;;;2.80;99.90;;;;;;4986697;28;20065;-58
2021/01/27 11:06:02;;;;;;;24.30;13.95;;;2.80;99.90;;;;;;5004610;28;20037;-58
2021/01/27 11:08:33;;;;;;;22.13;12.88;;;2.80;99.90;;;;;;5006125;28;20107;-59
2021/01/27 11:11:01;;;;;;;29.30;14.02;;;2.80;99.90;;;;;;5006143;28;20060;-58
2021/01/27 11:13:28;;;;;;;21.20;12.45;;;2.80;99.90;;;;;;5006031;28;20191;-59
2021/01/27 11:15:54;;;;;;;27.63;13.32;;;2.90;99.90;;;;;;5006000;28;20133;-58
2021/01/27 11:18:20;;;;;;;26.30;13.30;;;3.00;99.90;;;;;;5005974;28;20125;-58
2021/01/27 11:20:47;;;;;;;24.95;12.20;;;3.00;99.90;;;;;;5004919;28;20074;-59
2021/01/27 11:23:14;;;;;;;19.90;12.88;;;3.10;99.90;;;;;;5006310;28;20042;-58
2021/01/27 11:25:39;;;;;;;19.98;11.15;;;3.10;99.90;;;;;;5005121;28;20050;-59
2021/01/27 11:28:05;;;;;;;22.95;12.20;;;3.00;99.90;;;;;;5006663;28;20046;-59
2021/01/27 11:30:31;;;;;;;18.98;11.77;;;2.90;99.90;;;;;;5007185;28;20087;-57
2021/01/27 11:32:57;;;;;;;18.20;11.52;;;2.90;99.90;;;;;;5000165;28;20541;-58
2021/01/27 11:35:24;;;;;;;24.58;12.98;;;2.90;99.90;;;;;;5005501;28;20398;-59
2021/01/27 11:37:50;;;;;;;23.65;12.88;;;2.80;99.90;;;;;;5005795;28;20053;-60
2021/01/27 11:40:23;;;;;;;18.50;11.60;;;2.80;99.90;;;;;;5006597;28;20057;-60
2021/01/27 11:42:49;;;;;;;20.55;12.35;;;2.80;99.90;;;;;;5006448;28;20054;-60
2021/01/27 11:45:16;;;;;;;23.95;12.55;;;2.70;99.90;;;;;;5006088;28;20042;-55
2021/01/27 11:47:42;;;;;;;21.30;12.07;;;2.60;99.90;;;;;;5006205;28;20458;-58
2021/01/27 11:50:09;;;;;;;28.42;12.73;;;2.60;99.90;;;;;;4987074;28;20034;-56
2021/01/27 11:52:35;;;;;;;32.28;13.38;;;2.60;99.90;;;;;;4986787;28;20123;-57
2021/01/27 11:55:01;;;;;;;20.10;12.10;;;2.60;99.90;;;;;;4986790;28;20117;-57
2021/01/27 11:57:26;;;;;;;18.55;11.20;;;2.70;99.90;;;;;;5006250;28;20452;-60
2021/01/27 11:59:53;;;;;;;23.95;12.07;;;2.70;99.90;;;;;;5006409;28;20120;-60
2021/01/27 12:02:19;;;;;;;15.95;9.90;;;2.80;99.90;;;;;;5006213;28;20046;-60
2021/01/27 12:04:45;;;;;;;17.85;10.40;;;2.80;99.90;;;;;;5006292;28;20410;-61
2021/01/27 12:07:10;;;;;;;20.60;11.32;;;2.90;99.90;;;;;;5006143;28;20080;-61
2021/01/27 12:09:36;;;;;;;18.63;10.23;;;3.00;99.90;;;;;;5006325;28;20034;-57
2021/01/27 12:12:07;;;;;;;21.90;11.75;;;3.00;99.90;;;;;;5006131;28;20038;-59
2021/01/27 12:14:33;;;;;;;17.73;10.55;;;3.10;99.90;;;;;;5006200;28;20042;-59
2021/01/27 12:16:59;;;;;;;18.30;11.02;;;3.10;99.90;;;;;;5006299;28;20094;-59
2021/01/27 12:19:24;;;;;;;17.63;9.23;;;3.10;99.90;;;;;;5006167;28;20118;-60
2021/01/27 12:21:50;;;;;;;24.40;10.73;;;3.20;99.90;;;;;;5006012;28;20099;-60
2021/01/27 12:24:18;;;;;;;15.07;9.57;;;3.20;99.90;;;;;;5005906;28;20045;-60
2021/01/27 12:26:44;;;;;;;20.48;10.15;;;3.20;99.90;;;;;;5004858;28;20426;-60
2021/01/27 12:29:10;;;;;;;23.45;11.40;;;3.20;99.90;;;;;;5006030;28;20041;-60
2021/01/27 12:31:36;;;;;;;20.52;11.10;;;3.10;99.90;;;;;;5006109;28;20441;-58
2021/01/27 12:34:02;;;;;;;15.07;9.68;;;3.10;99.90;;;;;;5006600;28;20038;-62
2021/01/27 12:36:28;;;;;;;16.08;10.63;;;2.90;99.90;;;;;;5009524;28;20115;-62
2021/01/27 12:38:53;;;;;;;16.88;10.55;;;2.90;99.90;;;;;;5009148;28;20077;-62
2021/01/27 12:41:19;;;;;;;18.58;10.27;;;2.80;99.90;;;;;;5009348;28;20566;-62
2021/01/27 12:43:45;;;;;;;22.80;10.77;;;2.80;99.90;;;;;;5009181;28;20161;-62
2021/01/27 12:46:11;;;;;;;16.48;10.65;;;2.70;99.90;;;;;;5009375;28;20042;-62
2021/01/27 12:48:39;;;;;;;19.40;11.57;;;2.70;99.90;;;;;;5009368;28;20034;-62
2021/01/27 12:51:05;;;;;;;23.38;10.73;;;2.60;99.90;;;;;;5009163;28;20034;-59
2021/01/27 12:53:31;;;;;;;20.48;10.63;;;2.60;99.90;;;;;;5009223;28;20057;-65
2021/01/27 12:55:57;;;;;;;18.50;10.50;;;2.60;99.90;;;;;;5007507;28;20082;-65
2021/01/27 12:58:23;;;;;;;15.70;10.93;;;2.50;99.90;;;;;;5008866;28;20042;-64
2021/01/27 13:00:49;;;;;;;15.45;10.48;;;2.50;99.90;;;;;;5008740;28;20045;-65
2021/01/27 13:03:15;;;;;;;18.38;11.32;;;2.40;99.90;;;;;;5008649;28;20088;-63
2021/01/27 13:05:41;;;;;;;16.65;11.45;;;2.40;99.90;;;;;;5008860;28;20041;-64